M I D A S
Marine Information and Data Acquisition System
Tripno 185 of the Zeeleeuw from 2001-12-14 07:15:00 to 2001-12-14 18:30:00
Back to CruiseResearch ActivitiesStationsMapUnderway DataData graphs

EquipmentUnitsComment
TimeDGPSUTC
LatitudeDGPSDM.mWGS84
LongitudeDGPSDM.mWGS84
HeadingGyrodeg 
SOGDGPSknotsSpeed over ground
COGDGPSdegCourse over ground
DepthEcho soundermeters200 kHz
Missing or incorrect values are displayed as -999
Navigation data collected by the RV Zeeleeuw from 2001-12-14 07:15:00 to 2001-12-14 18:30:00
Time Latitude Longitude Heading SOG COG Depth
2001-12-14 07:21:26 51°13.687 2°55.905 359.8   351.7 6.2
2001-12-14 07:22:26 51°13.688 2°55.906 359.7   351.4 6.2
2001-12-14 07:23:26 51°13.688 2°55.905     52.8 6.2
2001-12-14 07:24:26 51°13.688 2°55.905     259.6 6.2
2001-12-14 07:25:26 51°13.688 2°55.905     323.9 6.2
2001-12-14 07:26:43 51°13.689 2°55.905 359.7   353.5 6.2
2001-12-14 07:27:58 51°13.689 2°55.905 63.5   295.7 6.3
2001-12-14 07:28:58 51°13.689 2°55.905 130.2   332.3 6.2
2001-12-14 07:29:58 51°13.689 2°55.905 130.5   251.2 6.2
2001-12-14 07:30:58 51°13.689 2°55.905 130.5   7.7 6.2
2001-12-14 07:31:58 51°13.689 2°55.904 130.5   280.7 6.3
2001-12-14 07:32:58 51°13.689 2°55.904 130.2   331 6.3
2001-12-14 07:36:33 51°13.689 2°55.905 130.5   346.5 6.3
2001-12-14 07:37:33 51°13.689 2°55.905 130.3   253.8 6.3
2001-12-14 07:38:33 51°13.689 2°55.905 130.3   229.7 6.3
2001-12-14 07:39:33 51°13.689 2°55.905 130.2   247.3 6.3
2001-12-14 07:40:33 51°13.689 2°55.905 130.5   220.6 6.3
2001-12-14 07:41:33 51°13.689 2°55.905 130.5   210 6.4
2001-12-14 07:42:33 51°13.689 2°55.905 130.5   345.4 6.4
2001-12-14 07:43:34 51°13.689 2°55.904 130.5   222.4 6.4
2001-12-14 07:44:33 51°13.688 2°55.905 130.7   230.4 6.4
2001-12-14 07:45:33 51°13.689 2°55.905 130.5   224 6.1
2001-12-14 07:46:33 51°13.689 2°55.905 130.7   216.8 6.4
2001-12-14 07:47:34 51°13.689 2°55.904 130.7   334.3 6.4
2001-12-14 07:48:33 51°13.689 2°55.904 130.7   251.3 6.4
2001-12-14 07:49:34 51°13.689 2°55.905 130.3   245.2 6.4
2001-12-14 07:50:33 51°13.689 2°55.905 130.2   248.3 6.4
2001-12-14 07:51:34 51°13.689 2°55.905 130.7   278 6.4
2001-12-14 07:52:33 51°13.689 2°55.906 131   233.3 6.5
2001-12-14 07:53:34 51°13.689 2°55.906 131   213.9 6.5
2001-12-14 07:54:33 51°13.688 2°55.905 130.5   240.7 6.5
2001-12-14 07:55:33 51°13.689 2°55.906 128.5   307.1 6.5
2001-12-14 07:56:33 51°13.689 2°55.905 125.5 0.1 138.7 6.5
2001-12-14 07:57:33 51°13.687 2°55.905 117.8 0.1 204.5 6.6
2001-12-14 07:58:33 51°13.687 2°55.904 107 0.1 287.5 6.9
2001-12-14 07:59:34 51°13.694 2°55.853 95.8 3 278.4 -999
2001-12-14 08:00:33 51°13.696 2°55.778 83.5 2.7 269.7 12.1
2001-12-14 08:01:33 51°13.706 2°55.755 31.5 2.6 22.7 12.7
2001-12-14 08:02:33 51°13.775 2°55.68 317.7 5.7 314.6 9.5
2001-12-14 08:03:33 51°13.849 2°55.605 339.3 5.1 336.3 9.5
2001-12-14 08:04:34 51°13.93 2°55.548 339.7 5.4 337 9.7
2001-12-14 08:05:33 51°14.016 2°55.492 340.3 5.9 336.9 9.6
2001-12-14 08:06:33 51°14.11 2°55.427 339.8 6.7 336 9.6
2001-12-14 08:07:33 51°14.211 2°55.329 325.8 7.3 323.2 9.7
2001-12-14 08:08:33 51°14.295 2°55.189 310.3 7.4 307.5 9.9
2001-12-14 08:09:33 51°14.372 2°55.001 301.3 9.2 297.8 9.3
2001-12-14 08:10:33 51°14.382 2°54.712 262 12.9 260 9.3
2001-12-14 08:11:33 51°14.291 2°54.382 241.8 13.9 239.4 8.3
2001-12-14 08:12:33 51°14.174 2°54.06 245.5 14.1 242.5 8
2001-12-14 08:13:33 51°14.061 2°53.731 244.5 14.3 241.2 8.2
2001-12-14 08:14:33 51°13.944 2°53.398 243.8 14.5 241 8.5
2001-12-14 08:15:33 51°13.825 2°53.063 243.7 14.5 240.2 8.8
2001-12-14 08:16:33 51°13.705 2°52.724 244.2 14.7 240.8 9.2
2001-12-14 08:17:33 51°13.584 2°52.383 243.3 14.9 241 9.4
2001-12-14 08:18:33 51°13.463 2°52.038 243.7 14.9 240.4 9.6
2001-12-14 08:19:33 51°13.341 2°51.691 244 15 241 9.6
2001-12-14 08:20:33 51°13.218 2°51.344 243.7 15 240.5 9.6
2001-12-14 08:21:33 51°13.095 2°50.993 244.5 15.2 241.3 9.8
2001-12-14 08:22:33 51°12.972 2°50.647 243 15 239.9 9.8
2001-12-14 08:23:33 51°12.85 2°50.298 243.3 15.1 240.2 10
2001-12-14 08:24:32 51°12.73 2°49.955 243 15.1 240.1 10.1
2001-12-14 08:25:33 51°12.607 2°49.596 243.7 15.2 241 10.2
2001-12-14 08:26:34 51°12.489 2°49.232 247.3 15.1 245 10.2
2001-12-14 08:27:34 51°12.39 2°48.863 251.7 15.2 247.4 10.6
2001-12-14 08:28:33 51°12.289 2°48.498 248.5 15.3 245.1 10.8
2001-12-14 08:29:34 51°12.185 2°48.12 250 15.3 246.3 11.3
2001-12-14 08:30:33 51°12.088 2°47.761 249.5 14.9 246.4 11.4
2001-12-14 08:31:33 51°12.003 2°47.393 253 14.9 249.6 11.8
2001-12-14 08:32:33 51°11.921 2°47.018 255.8 15 252.5 12.1
2001-12-14 08:33:34 51°11.848 2°46.631 256.3 15.1 253.9 12.3
2001-12-14 08:34:33 51°11.772 2°46.256 254.5 15.1 252.1 12.6
2001-12-14 08:35:33 51°11.696 2°45.874 256 15.1 252.9 12.6
2001-12-14 08:36:33 51°11.622 2°45.489 257.8 15 253.8 12.7
2001-12-14 08:37:33 51°11.555 2°45.115 257 14.8 252.9 12.6
2001-12-14 08:38:32 51°11.488 2°44.744 258.5 14.8 254.1 12.6
2001-12-14 08:39:33 51°11.421 2°44.361 258.2 14.8 254.3 12.5
2001-12-14 08:40:33 51°11.356 2°43.986 257.7 14.7 254.2 12.5
2001-12-14 08:41:33 51°11.291 2°43.613 257.5 14.6 254.6 12.5
2001-12-14 08:42:33 51°11.225 2°43.239 258.2 14.7 254.2 12.6
2001-12-14 08:43:33 51°11.164 2°42.868 260.7 14.5 255.9 12.5
2001-12-14 08:44:34 51°11.112 2°42.492 261.5 13.7 257.6 12.4
2001-12-14 08:45:33 51°11.077 2°42.249 265.7 7.4 259.1 12.7
2001-12-14 08:46:33 51°11.07 2°42.1 283.8 4.6 271.2 12.5
2001-12-14 08:47:33 51°11.078 2°42.001 302 3.3 281.2 12.5
2001-12-14 08:48:34 51°11.131 2°41.927 355.2 2.9 326.4 12.3
2001-12-14 08:49:34 51°11.132 2°41.895 8.2 1.3 296.9 12.2
2001-12-14 08:50:33 51°11.166 2°41.931 67.8 1.8 66.2 12.4
2001-12-14 08:51:34 51°11.16 2°41.962 94.5 1.2 137.5 12.2
2001-12-14 08:52:34 51°11.144 2°41.97 100 1 173.9 12.3
2001-12-14 08:53:34 51°11.128 2°41.968 93.5 1 195.1 12.3
2001-12-14 08:54:33 51°11.112 2°41.956 98 1.1 211.3 12.5
2001-12-14 08:55:34 51°11.095 2°41.935 106 1.4 219 12.5
2001-12-14 08:56:33 51°11.076 2°41.916 116 1.4 199.6 12.6
2001-12-14 08:57:34 51°11.056 2°41.919 96.8 1 174 12.8
2001-12-14 08:58:33 51°11.043 2°41.917 85.8 0.8 185.9 12.7
2001-12-14 08:59:33 51°11.023 2°41.945 130.2 3.2 141.4 12.8
2001-12-14 09:00:33 51°10.949 2°41.911 233.7 6.4 227.9 12.9
2001-12-14 09:01:33 51°10.883 2°41.64 253.8 13.6 251.2 12.8
2001-12-14 09:02:34 51°10.801 2°41.282 253.8 14.3 251 12.6
2001-12-14 09:03:33 51°10.727 2°40.924 255.8 14.5 252.7 12.9
2001-12-14 09:04:33 51°10.654 2°40.556 256.3 14.6 253.5 13.4
2001-12-14 09:05:33 51°10.579 2°40.196 253.8 14.3 250.6 14
2001-12-14 09:06:33 51°10.517 2°39.828 261 14.4 255.9 14.5
2001-12-14 09:07:33 51°10.464 2°39.462 260.3 14.1 255.6 15.3
2001-12-14 09:08:33 51°10.41 2°39.094 259.3 14.4 256.9 15.7
2001-12-14 09:09:33 51°10.351 2°38.724 260.5 14.5 256.9 16.8
2001-12-14 09:10:34 51°10.307 2°38.34 266.7 14.4 262.6 16.8
2001-12-14 09:11:33 51°10.299 2°37.958 272.7 14.9 268.7 18.1
2001-12-14 09:12:33 51°10.297 2°37.569 276.5 14.6 271.7 18.5
2001-12-14 09:13:33 51°10.311 2°37.195 283.7 13.8 278.2 18.4
2001-12-14 09:14:33 51°10.419 2°36.89 322 13 314.8 13.1
2001-12-14 09:15:33 51°10.6 2°36.723 339.8 12.8 333.2 9.7
2001-12-14 09:16:34 51°10.806 2°36.632 0.8 12.6 353.2 11.7
2001-12-14 09:17:33 51°11.001 2°36.709 29.7 12.4 25.1 12.9
2001-12-14 09:18:33 51°11.192 2°36.835 27 12.4 21.7 13.4
2001-12-14 09:19:33 51°11.381 2°36.961 27.2 12.4 22.8 13.9
2001-12-14 09:20:33 51°11.572 2°37.095 28 12.6 24.2 13.9
2001-12-14 09:21:33 51°11.763 2°37.225 28 12.5 24.3 13.6
2001-12-14 09:22:33 51°11.953 2°37.356 28.8 12.5 23.8 13.3
2001-12-14 09:23:33 51°12.144 2°37.488 28.5 12.4 23.2 13
2001-12-14 09:24:33 51°12.336 2°37.621 28 12.6 22.7 12.9
2001-12-14 09:25:34 51°12.529 2°37.756 27.7 12.4 23 13.4
2001-12-14 09:26:33 51°12.717 2°37.888 26.5 12.5 23.4 13.6
2001-12-14 09:27:33 51°12.908 2°38.021 27.7 12.5 24.3 14.2
2001-12-14 09:28:33 51°13.098 2°38.158 28.7 12.6 24.8 14.6
2001-12-14 09:29:33 51°13.291 2°38.294 28.8 12.6 24.3 14.9
2001-12-14 09:30:33 51°13.483 2°38.429 26.5 12.7 23.6 15.1
2001-12-14 09:31:34 51°13.677 2°38.569 27.2 12.6 24.7 14.6
2001-12-14 09:32:33 51°13.863 2°38.704 27 12.6 24.9 13.8
2001-12-14 09:33:33 51°14.052 2°38.844 28.7 12.5 26 12.3
2001-12-14 09:34:34 51°14.243 2°38.987 29 12.4 25.3 12.8
2001-12-14 09:35:34 51°14.433 2°39.123 27.8 12.4 23.2 16.3
2001-12-14 09:36:34 51°14.628 2°39.242 19.7 12.6 16.4 17.8
2001-12-14 09:37:33 51°14.828 2°39.313 16.2 12.6 12 17.1
2001-12-14 09:38:34 51°15.03 2°39.405 28.3 12.4 23.2 18.2
2001-12-14 09:39:33 51°15.205 2°39.564 33 12.3 29 18.5
2001-12-14 09:40:33 51°15.385 2°39.724 35.2 12.4 30.6 19
2001-12-14 09:41:34 51°15.567 2°39.888 32.7 12 27.8 19.8
2001-12-14 09:42:33 51°15.659 2°39.978 47.2 4.1 39.9 20.2
2001-12-14 09:43:34 51°15.687 2°40.015 49.2 1 28.9 20.3
2001-12-14 09:44:33 51°15.696 2°40.018 52.2 0.3 342.8 20.4
2001-12-14 09:45:33 51°15.697 2°40.006 43.7 0.7 269.3 20.5
2001-12-14 09:46:33 51°15.695 2°39.983 27.2 1 259.6 20.8
2001-12-14 09:47:34 51°15.69 2°39.951 4.5 1.3 252.1 20.6
2001-12-14 09:48:33 51°15.683 2°39.918 350.2 1.3 252.8 20.8
2001-12-14 09:49:34 51°15.677 2°39.885 345.5 1.2 253.5 20.8
2001-12-14 09:50:34 51°15.672 2°39.852 352 1.3 264.1 20.9
2001-12-14 09:51:33 51°15.67 2°39.822 356.3 1.1 266 21
2001-12-14 09:52:34 51°15.668 2°39.795 2.7 1 267.2 21
2001-12-14 09:53:34 51°15.703 2°39.87 81.8 7.2 79.6 21.1
2001-12-14 09:54:32 51°15.689 2°40.119 95.5 11.1 95.9 20
2001-12-14 09:55:33 51°15.668 2°40.463 97.7 13.2 98 17.4
2001-12-14 09:56:33 51°15.641 2°40.814 98.5 13.4 97.6 15
2001-12-14 09:57:34 51°15.613 2°41.175 98.3 13.5 97.1 13.2
2001-12-14 09:58:33 51°15.588 2°41.529 97.8 13.6 96.7 12.4
2001-12-14 09:59:33 51°15.562 2°41.891 97.2 13.8 96 11.7
2001-12-14 10:00:33 51°15.531 2°42.253 100.3 13.8 99.1 12.4
2001-12-14 10:01:33 51°15.497 2°42.614 101.2 13.6 98.6 12
2001-12-14 10:02:34 51°15.472 2°42.983 94.2 13.8 93.1 13.5
2001-12-14 10:03:34 51°15.477 2°43.346 87.5 13.7 86.7 14.7
2001-12-14 10:04:33 51°15.497 2°43.704 86.5 13.7 84.9 14.8
2001-12-14 10:05:33 51°15.524 2°44.063 83.7 13.7 81.9 14.4
2001-12-14 10:06:33 51°15.559 2°44.424 81.3 13.7 80.2 14.3
2001-12-14 10:07:34 51°15.604 2°44.789 79.8 13.8 78.4 14.7
2001-12-14 10:08:34 51°15.65 2°45.15 81.7 13.9 78.9 16.4
2001-12-14 10:09:34 51°15.698 2°45.51 80.8 13.9 77.6 17.2
2001-12-14 10:10:33 51°15.747 2°45.867 81 14.1 77.2 18.7
2001-12-14 10:11:34 51°15.799 2°46.237 80.2 14.1 76.2 18.6
2001-12-14 10:12:33 51°15.849 2°46.596 81 14.1 77.4 18.7
2001-12-14 10:13:33 51°15.898 2°46.963 81.3 14.1 78 18.7
2001-12-14 10:14:34 51°15.949 2°47.338 80.8 14.2 77.8 18.3
2001-12-14 10:15:33 51°15.999 2°47.7 80.5 14.3 77.4 17.8
2001-12-14 10:16:33 51°16.05 2°48.069 80.3 14.2 77.7 17.5
2001-12-14 10:17:34 51°16.098 2°48.443 81.5 14.1 78.6 17.1
2001-12-14 10:18:34 51°16.143 2°48.812 81.5 14.2 78.9 16.2
2001-12-14 10:19:33 51°16.187 2°49.175 82.2 14.1 79.1 14.6
2001-12-14 10:20:33 51°16.23 2°49.544 82.2 14.1 79.7 13.5
2001-12-14 10:21:34 51°16.278 2°49.919 81.5 14.1 78.6 13
2001-12-14 10:22:34 51°16.322 2°50.29 81.5 14.3 79.1 12.2
2001-12-14 10:23:33 51°16.375 2°50.651 75.7 14.3 73.3 10.9
2001-12-14 10:24:33 51°16.462 2°51.005 65.5 14.3 62.8 13.7
2001-12-14 10:25:34 51°16.61 2°51.301 46.2 14.1 44.9 13.6
2001-12-14 10:26:34 51°16.773 2°51.569 49.5 14.1 48 13
2001-12-14 10:27:34 51°16.944 2°51.822 40 14 38.9 12.6
2001-12-14 10:28:33 51°17.133 2°52.026 33 14 31.3 12.7
2001-12-14 10:29:33 51°17.345 2°52.173 18.5 13.8 16.5 12.6
2001-12-14 10:30:32 51°17.56 2°52.165 338.7 13.2 338.2 12.6
2001-12-14 10:31:34 51°17.75 2°52.047 347.5 10.2 345.8 12.7
2001-12-14 10:32:34 51°17.872 2°51.96 330.2 7.2 330.4 12.6
2001-12-14 10:33:33 51°17.97 2°51.823 315.3 9 315.4 12.9
2001-12-14 10:34:34 51°18.083 2°51.642 316.5 9.8 316.7 13.5
2001-12-14 10:35:33 51°18.208 2°51.409 308.7 12.3 309.3 14.3
2001-12-14 10:36:34 51°18.314 2°51.137 307.8 11.2 303.7 15.5
2001-12-14 10:37:34 51°18.417 2°50.991 317.3 7 319.1 16.1
2001-12-14 10:38:33 51°18.482 2°50.916 327 4 332.9 16.6
2001-12-14 10:39:34 51°18.532 2°50.883 332.2 2.6 342.9 16.6
2001-12-14 10:40:33 51°18.564 2°50.876 342.5 1.4 5.7 16.7
2001-12-14 10:41:33 51°18.568 2°50.885 339 0.4 65.1 16.8
2001-12-14 10:42:33 51°18.572 2°50.895 335 0.4 52.5 16.8
2001-12-14 10:43:34 51°18.578 2°50.904 335.3 0.5 40.1 16.9
2001-12-14 10:44:33 51°18.583 2°50.912 339 0.5 43.1 16.9
2001-12-14 10:45:34 51°18.587 2°50.921 340.3 0.4 70.7 16.7
2001-12-14 10:46:33 51°18.59 2°50.93 338.2 0.4 59.7 16.9
2001-12-14 10:47:34 51°18.604 2°50.936 352.7 2.7 1.6 16.9
2001-12-14 10:48:33 51°18.671 2°51.08 83.5 10.4 76 16.9
2001-12-14 10:49:33 51°18.727 2°51.427 79.5 14.3 76.2 16.6
2001-12-14 10:50:34 51°18.802 2°51.802 72.8 14.6 69.8 16.3
2001-12-14 10:51:33 51°18.882 2°52.161 74.5 14.5 71.5 15.8
2001-12-14 10:52:32 51°18.959 2°52.519 74.2 14.5 71.2 15.3
2001-12-14 10:53:34 51°19.039 2°52.894 74.3 14.5 71.2 14.9
2001-12-14 10:54:33 51°19.117 2°53.251 74.2 14.6 71.2 14.7
2001-12-14 10:55:34 51°19.197 2°53.62 74.2 14.5 71.4 14.7
2001-12-14 10:56:33 51°19.277 2°53.976 74.5 14.4 70.8 14.7
2001-12-14 10:57:33 51°19.355 2°54.341 74 14.5 71.3 14.6
2001-12-14 10:58:34 51°19.437 2°54.711 74 14.6 71 14.6
2001-12-14 10:59:33 51°19.516 2°55.07 73.3 14.6 70.8 14.6
2001-12-14 11:00:33 51°19.598 2°55.436 73.7 14.7 70.5 14.7
2001-12-14 11:01:33 51°19.68 2°55.804 74.3 14.7 70.8 14.6
2001-12-14 11:02:33 51°19.763 2°56.175 73.2 14.9 69.1 14.3
2001-12-14 11:03:34 51°19.848 2°56.555 74.3 15 70.1 14.2
2001-12-14 11:04:34 51°19.929 2°56.929 74.5 14.9 69.9 14.1
2001-12-14 11:05:34 51°20.013 2°57.302 74.3 15 70.6 14.1
2001-12-14 11:06:34 51°20.098 2°57.674 74.2 14.9 70.9 13.9
2001-12-14 11:07:34 51°20.181 2°58.046 74 14.8 70.3 13.9
2001-12-14 11:08:34 51°20.265 2°58.419 74.7 15 70.4 13.7
2001-12-14 11:09:34 51°20.349 2°58.794 73.8 15.1 69.9 13.7
2001-12-14 11:10:34 51°20.434 2°59.171 74.5 15.1 70.9 13.5
2001-12-14 11:11:34 51°20.519 2°59.548 74.3 15.1 70.6 13.4
2001-12-14 11:12:34 51°20.605 2°59.926 73.8 15.2 70.7 13.4
2001-12-14 11:13:34 51°20.691 3°0.306 74.2 15.2 71 13.3
2001-12-14 11:14:34 51°20.78 3°0.687 73.5 15.3 69.9 13.2
2001-12-14 11:15:33 51°20.865 3°1.063 73.5 15.3 69.7 13.2
2001-12-14 11:16:33 51°20.952 3°1.445 74.2 15.3 70.2 13.3
2001-12-14 11:17:34 51°21.041 3°1.838 74.5 15.4 70 13.4
2001-12-14 11:18:33 51°21.128 3°2.216 74.3 15.5 70.2 13.3
2001-12-14 11:19:34 51°21.218 3°2.611 73.8 15.5 69.3 13.3
2001-12-14 11:20:33 51°21.306 3°2.995 74.3 15.6 69.8 13.3
2001-12-14 11:21:33 51°21.395 3°3.384 74.2 15.7 70.2 13.4
2001-12-14 11:22:34 51°21.487 3°3.777 73.7 15.5 70 13.4
2001-12-14 11:23:34 51°21.576 3°4.164 73.7 15.5 69.7 13.5
2001-12-14 11:24:33 51°21.662 3°4.542 73.5 15.4 69.4 13.6
2001-12-14 11:25:33 51°21.752 3°4.928 73.2 15.5 69.7 13.7
2001-12-14 11:26:34 51°21.829 3°5.329 75.2 15.5 71.2 13.8
2001-12-14 11:27:34 51°21.913 3°5.723 74.8 15.6 70.4 14.1
2001-12-14 11:28:34 51°22.01 3°6.104 56.5 15.2 57.9 14.2
2001-12-14 11:29:34 51°22.215 3°6.325 25.8 15 28.2 14.8
2001-12-14 11:30:33 51°22.441 3°6.465 17.5 14.8 20.6 14.9
2001-12-14 11:31:34 51°22.675 3°6.602 17.7 14.8 19.4 14.9
2001-12-14 11:32:34 51°22.908 3°6.72 11.7 14.5 14.2 14.2
2001-12-14 11:33:34 51°23.139 3°6.825 12.7 14.5 16 14.4
2001-12-14 11:34:34 51°23.368 3°6.934 14.2 14.4 17 15
2001-12-14 11:35:34 51°23.596 3°7.04 14.2 14.2 15.7 16.8
2001-12-14 11:36:33 51°23.819 3°7.148 13.7 14.1 16.5 21
2001-12-14 11:37:34 51°24.045 3°7.266 14 14.1 19.8 21.2
2001-12-14 11:38:34 51°24.265 3°7.383 13.2 13.9 18.7 16.6
2001-12-14 11:39:33 51°24.483 3°7.463 10 13.7 12.1 13.9
2001-12-14 11:40:34 51°24.71 3°7.54 9.3 13.7 11.5 13.1
2001-12-14 11:41:34 51°24.934 3°7.619 8.3 13.8 11.6 12.1
2001-12-14 11:42:34 51°25.157 3°7.7 11.5 13.8 14.4 10.8
2001-12-14 11:43:34 51°25.383 3°7.792 12.5 14.1 14.6 11
2001-12-14 11:44:34 51°25.611 3°7.877 13 14.1 13.8 11.5
2001-12-14 11:45:33 51°25.835 3°7.977 17 14.2 17.7 11.8
2001-12-14 11:46:34 51°26.063 3°8.104 20.7 14.3 20.8 12.1
2001-12-14 11:47:34 51°26.27 3°8.229 27 11.4 25.8 12.2
2001-12-14 11:48:34 51°26.375 3°8.374 48.2 6.6 48 13.1
2001-12-14 11:49:34 51°26.43 3°8.466 34.5 3.8 41.6 13.5
2001-12-14 11:50:34 51°26.448 3°8.495 29.3 1.1 44.6 13.5
2001-12-14 11:51:33 51°26.46 3°8.51 6.8 0.8 39.8 13.7
2001-12-14 11:52:34 51°26.47 3°8.523 348.3 0.7 43.8 13.6
2001-12-14 11:53:34 51°26.478 3°8.535 339.8 0.7 44.8 13.6
2001-12-14 11:54:34 51°26.486 3°8.545 331.3 0.6 36.4 13.8
2001-12-14 11:55:33 51°26.493 3°8.556 327.8 0.6 49.3 13.6
2001-12-14 11:56:34 51°26.5 3°8.568 329.5 0.6 47.9 14
2001-12-14 11:57:34 51°26.507 3°8.578 331.7 0.6 42.4 13.8
2001-12-14 11:58:34 51°26.516 3°8.589 331.5 0.7 21 13.7
2001-12-14 11:59:34 51°26.519 3°8.517 227.8 4.4 226.6 13.8
2001-12-14 12:00:34 51°26.436 3°8.584 149 7.5 137.2 13.5
2001-12-14 12:01:34 51°26.272 3°8.668 171.3 11.8 163.3 12.5
2001-12-14 12:02:34 51°26.077 3°8.714 181.3 11.8 174.7 11.9
2001-12-14 12:03:34 51°25.9 3°8.817 159.2 11 151.3 11.3
2001-12-14 12:04:34 51°25.77 3°8.927 171.5 7.1 158.6 10.8
2001-12-14 12:05:34 51°25.675 3°8.957 185.3 5.4 172.6 10.6
2001-12-14 12:06:34 51°25.598 3°8.985 174.3 3.9 159.9 10.4
2001-12-14 12:07:33 51°25.555 3°9.027 164.2 2.7 143.4 10.4
2001-12-14 12:08:33 51°25.528 3°9.068 159.5 2 133.9 10.3
2001-12-14 12:09:34 51°25.454 3°9.139 165.2 9.4 155.4 9.6
2001-12-14 12:10:34 51°25.294 3°9.346 141.5 13.5 134.8 9.5
2001-12-14 12:11:34 51°25.133 3°9.606 141.3 13.8 135.6 10
2001-12-14 12:12:34 51°24.966 3°9.87 142.7 14.2 135.4 11.1
2001-12-14 12:13:34 51°24.799 3°10.135 141.7 14.2 134.8 12.4
2001-12-14 12:14:34 51°24.632 3°10.402 142.2 14.2 134.3 13.9
2001-12-14 12:15:34 51°24.463 3°10.669 144.7 14.3 136.2 17.2
2001-12-14 12:16:34 51°24.277 3°10.91 154 14.5 144.4 20.9
2001-12-14 12:17:34 51°24.066 3°11.07 171 14 160.4 19.7
2001-12-14 12:18:34 51°23.85 3°11.193 168.3 13.9 159.4 15.8
2001-12-14 12:19:33 51°23.674 3°11.314 167.2 8.7 153.1 15.3
2001-12-14 12:20:34 51°23.588 3°11.409 159.3 5.1 138.9 15.1
2001-12-14 12:21:34 51°23.548 3°11.501 138.7 3.8 117 15.1
2001-12-14 12:22:34 51°23.531 3°11.58 128.2 2.8 106.2 15.1
2001-12-14 12:23:34 51°23.522 3°11.642 125.8 2.1 99.9 15.1
2001-12-14 12:24:34 51°23.518 3°11.692 128.3 1.8 96.4 15.1
2001-12-14 12:25:34 51°23.516 3°11.733 136.7 1.3 95.1 14.9
2001-12-14 12:26:34 51°23.502 3°11.774 164.8 3.6 138.4 14.9
2001-12-14 12:27:34 51°23.355 3°11.763 195.7 11.8 185.4 14.8
2001-12-14 12:28:34 51°23.144 3°11.748 179.5 13.2 171.1 14.4
2001-12-14 12:29:34 51°22.971 3°11.979 145 14.2 135.2 15.1
2001-12-14 12:30:33 51°22.827 3°12.279 137.8 14.4 129.6 15.6
2001-12-14 12:31:34 51°22.687 3°12.603 127 14.7 121.2 15.7
2001-12-14 12:32:34 51°22.592 3°12.966 110.5 15 105.2 15.4
2001-12-14 12:33:34 51°22.609 3°13.226 63.8 6.6 67.2 15.1
2001-12-14 12:34:35 51°22.609 3°13.277 6.3 1.8 139.7 -999
2001-12-14 12:35:34 51°22.637 3°13.27 291.2 1.7 317.5 14.9
2001-12-14 12:36:34 51°22.647 3°13.275 291.8 0.7 9.8 14.9
2001-12-14 12:37:34 51°22.661 3°13.266 273.5 1.2 296.5 14.8
2001-12-14 12:38:34 51°22.658 3°13.254 244 0.6 197.2 14.8
2001-12-14 12:39:34 51°22.645 3°13.262 218 1 147.9 14.8
2001-12-14 12:40:34 51°22.632 3°13.28 210.3 1.1 137.3 14.9
2001-12-14 12:41:33 51°22.618 3°13.301 210.3 1.2 140.9 14.8
2001-12-14 12:42:34 51°22.6 3°13.296 245.2 1 217.6 15
2001-12-14 12:43:34 51°22.587 3°13.284 240.2 0.8 199.1 15
2001-12-14 12:44:34 51°22.575 3°13.284 231.8 0.7 172.8 14.9
2001-12-14 12:45:33 51°22.565 3°13.289 231.2 0.7 160.7 14.9
2001-12-14 12:46:34 51°22.552 3°13.248 271.5 4.3 267.8 15
2001-12-14 12:47:34 51°22.51 3°13.01 253.8 11.4 251.3 15.4
2001-12-14 12:48:34 51°22.448 3°12.708 254.2 12 251.7 16
2001-12-14 12:49:34 51°22.386 3°12.403 254.8 12.1 251.7 17
2001-12-14 12:50:34 51°22.327 3°12.096 255.2 12.1 254.6 17.6
2001-12-14 12:51:34 51°22.266 3°11.786 255 12.4 252.5 18.2
2001-12-14 12:52:34 51°22.207 3°11.476 252.3 12.2 251.5 18.4
2001-12-14 12:53:34 51°22.123 3°11.177 245.8 12.4 245.3 19.2
2001-12-14 12:54:34 51°22.015 3°10.902 239 12.1 235.8 19.9
2001-12-14 12:55:34 51°21.905 3°10.63 240 12.2 238.2 20.5
2001-12-14 12:56:34 51°21.799 3°10.354 241 12.2 238.8 16.5
2001-12-14 12:57:34 51°21.696 3°10.076 240 12.3 238.6 15.3
2001-12-14 12:58:34 51°21.587 3°9.792 240 12.5 239.4 14.3
2001-12-14 12:59:33 51°21.482 3°9.509 240.7 12.7 239.5 13
2001-12-14 13:00:34 51°21.373 3°9.22 239.2 12.5 238.4 11.8
2001-12-14 13:01:34 51°21.267 3°8.935 240 12.3 239.4 11.3
2001-12-14 13:02:34 51°21.16 3°8.653 240 12.4 239.5 10.9
2001-12-14 13:03:34 51°21.055 3°8.371 240 12.3 238.9 10.5
2001-12-14 13:04:34 51°20.948 3°8.089 239.2 12.3 237.7 10.2
2001-12-14 13:05:34 51°20.842 3°7.811 239.7 12.2 238.6 10.1
2001-12-14 13:06:34 51°20.735 3°7.529 239.7 12.4 238.8 9.9
2001-12-14 13:07:34 51°20.628 3°7.248 240.5 12.4 239.3 9.9
2001-12-14 13:08:34 51°20.519 3°6.964 239.7 12.7 238.4 9.8
2001-12-14 13:09:34 51°20.409 3°6.677 239.2 12.7 237.5 9.8
2001-12-14 13:10:34 51°20.298 3°6.391 240 12.7 238.2 9.7
2001-12-14 13:11:34 51°20.186 3°6.108 240.5 12.5 238.6 10
2001-12-14 13:12:34 51°20.076 3°5.824 240 12.5 237.9 9.8
2001-12-14 13:13:34 51°19.966 3°5.541 240.3 12.6 238.8 9.9
2001-12-14 13:14:34 51°19.856 3°5.257 240 12.5 238.8 10.1
2001-12-14 13:15:34 51°19.745 3°4.973 239.5 12.6 237.8 10.1
2001-12-14 13:16:34 51°19.637 3°4.686 240.7 12.6 239.3 9.7
2001-12-14 13:17:34 51°19.524 3°4.406 239.7 12.6 238.1 10
2001-12-14 13:18:34 51°19.415 3°4.118 240.2 12.7 238.5 10
2001-12-14 13:19:34 51°19.308 3°3.836 240.2 12.5 238.9 10
2001-12-14 13:20:34 51°19.197 3°3.554 240.3 12.7 239.8 9.9
2001-12-14 13:21:34 51°19.089 3°3.267 240 12.5 239.3 10.1
2001-12-14 13:22:34 51°18.98 3°2.98 239.7 12.6 238.4 10.2
2001-12-14 13:23:34 51°18.871 3°2.696 240.3 12.6 239.6 10.1
2001-12-14 13:24:34 51°18.763 3°2.417 239.8 12.2 237.5 10.2
2001-12-14 13:25:34 51°18.656 3°2.14 239.2 12.2 237.3 10.2
2001-12-14 13:26:34 51°18.546 3°1.866 239.2 12.3 238 10.2
2001-12-14 13:27:34 51°18.436 3°1.594 239 12.2 237.7 10
2001-12-14 13:28:34 51°18.326 3°1.318 239 12.3 236.8 9.9
2001-12-14 13:29:34 51°18.216 3°1.045 238.8 12.3 236.9 9.8
2001-12-14 13:30:34 51°18.106 3°0.776 239.5 12.1 238.7 9.9
2001-12-14 13:31:34 51°17.999 3°0.504 239.3 12.2 238.1 9.9
2001-12-14 13:32:34 51°17.887 3°0.232 237.8 12.3 235.6 9.9
2001-12-14 13:33:34 51°17.778 2°59.955 239.5 12.4 237.8 10
2001-12-14 13:34:34 51°17.665 2°59.679 239.5 12.5 238.1 10
2001-12-14 13:35:34 51°17.568 2°59.389 246.8 12.4 245.9 10.3
2001-12-14 13:36:34 51°17.488 2°59.086 247 12.3 246 10.2
2001-12-14 13:37:34 51°17.402 2°58.785 245.8 12.5 246.6 10.1
2001-12-14 13:38:34 51°17.315 2°58.48 246.8 12.7 245.5 10.2
2001-12-14 13:39:34 51°17.226 2°58.176 247.8 12.7 245.4 10.2
2001-12-14 13:40:34 51°17.139 2°57.868 247.2 12.7 245.4 10.3
2001-12-14 13:41:34 51°17.055 2°57.565 247.5 12.4 246.5 10.6
2001-12-14 13:42:34 51°16.967 2°57.266 245.2 12.6 244.7 10.9
2001-12-14 13:43:34 51°16.879 2°56.96 246.3 12.7 245.7 11.3
2001-12-14 13:44:34 51°16.792 2°56.651 249.8 12.7 248.3 11.7
2001-12-14 13:45:34 51°16.715 2°56.341 249 12.6 247.4 11.9
2001-12-14 13:46:34 51°16.637 2°56.031 249.3 12.8 248.6 12
2001-12-14 13:47:34 51°16.558 2°55.717 248.5 12.8 247.5 12.2
2001-12-14 13:48:34 51°16.478 2°55.404 248.7 12.7 247.8 12.4
2001-12-14 13:49:34 51°16.397 2°55.089 250.2 13 249.8 12.6
2001-12-14 13:50:34 51°16.332 2°54.763 251.7 12.7 252.3 12.9
2001-12-14 13:51:34 51°16.269 2°54.472 252 10.2 251.5 13.3
2001-12-14 13:52:34 51°16.225 2°54.272 253.8 6 253.4 13.5
2001-12-14 13:53:34 51°16.222 2°54.186 276.8 0.6 311.1 13.5
2001-12-14 13:54:34 51°16.229 2°54.183 294.5 0.4 348.7 13.5
2001-12-14 13:55:34 51°16.237 2°54.18 313.5 0.6 345.9 13.5
2001-12-14 13:56:34 51°16.247 2°54.176 328.3 0.7 347.7 13.5
2001-12-14 13:57:34 51°16.258 2°54.173 336.8 0.7 349.8 13.6
2001-12-14 13:58:34 51°16.269 2°54.169 342 0.7 348 13.5
2001-12-14 13:59:34 51°16.279 2°54.165 341.5 0.6 349.5 13.6
2001-12-14 14:00:34 51°16.288 2°54.163 339.7 0.5 344.4 13.6
2001-12-14 14:01:34 51°16.295 2°54.159 331.8 0.4 344.1 13.4
2001-12-14 14:02:34 51°16.3 2°54.158 325.5 0.4 353.6 13.6
2001-12-14 14:03:34 51°16.306 2°54.156 326.2 0.3 341 13.5
2001-12-14 14:04:34 51°16.323 2°54.13 293.7 2.7 305.2 13.6
2001-12-14 14:05:34 51°16.308 2°54.063 209.8 3.3 206.8 13.6
2001-12-14 14:06:34 51°16.178 2°54.098 165.2 11.6 161.4 13.2
2001-12-14 14:07:34 51°15.977 2°54.213 165.8 13.4 161.7 12.7
2001-12-14 14:08:34 51°15.77 2°54.323 165.2 13.1 159.8 11.8
2001-12-14 14:09:34 51°15.558 2°54.407 169 13.4 165.5 11.2
2001-12-14 14:10:34 51°15.345 2°54.508 165.3 13.3 161.5 10.2
2001-12-14 14:11:34 51°15.138 2°54.611 170.2 13 164.9 9.5
2001-12-14 14:12:34 51°14.932 2°54.718 169.5 13.1 165 10.3
2001-12-14 14:13:34 51°14.724 2°54.826 167 13 161 10.6
2001-12-14 14:14:34 51°14.531 2°54.927 165 12.2 163.1 11.1
2001-12-14 14:15:34 51°14.357 2°55.085 135.7 11.8 135.8 11.7
2001-12-14 14:16:34 51°14.246 2°55.277 138.5 8.2 136.1 11.7
2001-12-14 14:17:34 51°14.157 2°55.377 152.3 5.8 149.9 11.6
2001-12-14 14:18:34 51°14.077 2°55.434 157.3 4.9 155.7 11.6
2001-12-14 14:19:34 51°14.006 2°55.489 156.7 4.8 154.5 11.6
2001-12-14 14:20:34 51°13.937 2°55.539 158.8 4.4 157.1 11.7
2001-12-14 14:21:35 51°13.872 2°55.587 156.7 4.2 154.5 11.6
2001-12-14 14:22:34 51°13.811 2°55.634 153 4.1 152.1 12
2001-12-14 14:23:34 51°13.76 2°55.701 136.8 3.7 134.6 11
2001-12-14 14:25:08 51°13.708 2°55.811 121.8 3 121 11.2
2001-12-14 14:26:07 51°13.693 2°55.874 108.2 2.3 106.7 10.1
2001-12-14 14:27:08 51°13.684 2°55.913 130.8 0.1 79.8 8.4
2001-12-14 14:28:09 51°13.684 2°55.908 135.2 0.2 273.8 -999
2001-12-14 14:29:09 51°13.684 2°55.903 144.8 0.1 260.5 -999